Time;durP1;ratioP1;P1;durP2;ratioP2;P2;SDS_P1;SDS_P2;PMS_P1;PMS_P2;Temp;Humidity;BMP_temperature;BMP_pressure;BME280_temperature;BME280_humidity;BME280_pressure;Samples;Min_cycle;Max_cycle;Signal;HPM_P1;HPM_P2
2021/11/09 00:04:54;;;;;;;31.95;12.73;;;;;;;6.55;94.90;99549.82;2188708;81;20949;-64
2021/11/09 00:07:55;;;;;;;30.68;12.35;;;;;;;6.60;94.87;99558.36;2188680;81;21012;-64
2021/11/09 00:10:55;;;;;;;28.32;11.12;;;;;;;6.58;94.89;99555.80;2188667;81;21032;-64
2021/11/09 00:13:57;;;;;;;29.75;12.35;;;;;;;6.58;94.83;99557.56;2209899;80;21048;-64
2021/11/09 00:17:00;;;;;;;29.82;12.25;;;;;;;6.58;94.85;99566.23;2210221;81;21584;-64
2021/11/09 00:20:02;;;;;;;31.10;11.65;;;;;;;6.58;94.89;99558.87;2210254;81;21044;-64
2021/11/09 00:23:03;;;;;;;27.02;11.00;;;;;;;6.59;94.96;99566.64;2210069;81;21104;-64
2021/11/09 00:26:06;;;;;;;29.52;10.95;;;;;;;6.62;95.08;99570.03;2210613;81;20937;-64
2021/11/09 00:29:08;;;;;;;26.65;10.32;;;;;;;6.61;94.99;99567.89;2210333;81;21480;-64
2021/11/09 00:32:10;;;;;;;26.75;11.08;;;;;;;6.64;94.86;99563.00;2210379;81;20981;-64
2021/11/09 00:35:14;;;;;;;28.55;10.48;;;;;;;6.64;94.87;99569.52;2210302;81;21013;-64
2021/11/09 00:38:15;;;;;;;26.37;11.00;;;;;;;6.63;94.80;99567.37;2210598;81;21487;-64
2021/11/09 00:41:18;;;;;;;28.23;11.00;;;;;;;6.64;94.87;99570.39;2210135;81;21032;-64
2021/11/09 00:44:19;;;;;;;27.40;10.95;;;;;;;6.66;94.82;99571.18;2210444;81;21474;-64
2021/11/09 00:47:21;;;;;;;26.48;10.50;;;;;;;6.67;94.99;99572.05;2210328;81;21047;-64
2021/11/09 00:50:22;;;;;;;28.17;10.98;;;;;;;6.67;94.91;99570.75;2210655;81;21445;-64
2021/11/09 00:53:24;;;;;;;27.17;10.80;;;;;;;6.69;94.86;99571.53;2210219;81;21013;-64
2021/11/09 00:56:26;;;;;;;28.05;11.38;;;;;;;6.66;94.95;99571.18;2210311;81;21012;-64
2021/11/09 00:59:27;;;;;;;29.00;11.55;;;;;;;6.66;94.94;99572.95;2210424;81;20968;-64
2021/11/09 01:02:29;;;;;;;27.00;10.93;;;;;;;6.65;95.02;99573.84;2210520;81;21495;-64
2021/11/09 01:05:31;;;;;;;27.22;11.35;;;;;;;6.66;94.94;99571.64;2210417;81;21011;-64
2021/11/09 01:08:32;;;;;;;27.48;10.85;;;;;;;6.66;95.14;99572.95;2210438;81;21008;-64
2021/11/09 01:11:34;;;;;;;26.48;10.55;;;;;;;6.67;94.96;99579.88;2210637;81;20980;-64
2021/11/09 01:14:35;;;;;;;25.17;10.18;;;;;;;6.67;95.12;99574.20;2209929;80;20954;-64
2021/11/09 01:17:36;;;;;;;24.40;10.30;;;;;;;6.66;95.28;99579.46;2210271;81;21542;-64
2021/11/09 01:20:38;;;;;;;25.85;9.98;;;;;;;6.64;95.29;99579.94;2210271;81;21075;-64
2021/11/09 01:23:40;;;;;;;25.75;10.05;;;;;;;6.62;95.28;99585.21;2210331;80;21542;-63
2021/11/09 01:26:42;;;;;;;27.60;9.93;;;;;;;6.63;95.44;99588.23;2210402;81;21031;-64
2021/11/09 01:29:44;;;;;;;22.85;9.35;;;;;;;6.65;95.20;99592.95;2210227;81;21510;-64
2021/11/09 01:32:46;;;;;;;;;;;;;;;6.66;95.46;99595.95;2212863;81;21027;-64
2021/11/09 01:35:47;;;;;;;25.27;10.00;;;;;;;6.67;95.39;99595.05;2210394;80;20109;-64
2021/11/09 01:38:49;;;;;;;25.15;10.20;;;;;;;6.65;95.58;99596.87;2210234;81;21028;-64
2021/11/09 01:41:50;;;;;;;23.92;9.70;;;;;;;6.63;95.47;99599.12;2210461;81;20956;-64
2021/11/09 01:44:52;;;;;;;23.50;9.45;;;;;;;6.64;95.41;99600.80;2210242;81;20988;-64
2021/11/09 01:47:53;;;;;;;23.50;9.55;;;;;;;6.65;95.15;99603.39;2210513;80;21099;-64
2021/11/09 01:50:56;;;;;;;24.37;10.05;;;;;;;6.65;95.25;99600.78;2209942;81;21083;-64
2021/11/09 01:53:58;;;;;;;24.60;9.30;;;;;;;6.63;95.20;99599.96;2210203;81;21071;-64
2021/11/09 01:56:59;;;;;;;25.52;10.20;;;;;;;6.64;95.39;99596.89;2210375;81;21012;-64
2021/11/09 02:00:03;;;;;;;25.02;10.03;;;;;;;6.66;95.35;99597.71;2210226;81;21047;-64
2021/11/09 02:03:04;;;;;;;23.85;9.48;;;;;;;6.67;95.42;99607.25;2188856;81;21032;-65
2021/11/09 02:06:05;;;;;;;24.95;10.20;;;;;;;6.65;95.40;99603.39;2210737;80;21012;-64
2021/11/09 02:09:07;;;;;;;25.77;10.05;;;;;;;6.66;95.56;99603.77;2210445;81;20984;-64
2021/11/09 02:12:08;;;;;;;23.52;9.50;;;;;;;6.69;95.43;99601.05;2210666;81;20965;-64
2021/11/09 02:15:10;;;;;;;26.80;11.28;;;;;;;6.72;95.62;99607.93;2210071;81;21079;-63
2021/11/09 02:18:12;;;;;;;28.35;11.97;;;;;;;6.73;95.37;99614.39;2210463;81;21031;-64
2021/11/09 02:21:13;;;;;;;26.55;10.72;;;;;;;6.76;95.40;99613.45;2210515;81;20972;-64
2021/11/09 02:24:15;;;;;;;27.55;11.12;;;;;;;6.82;95.37;99615.84;2210339;81;20996;-64
2021/11/09 02:27:16;;;;;;;26.40;10.40;;;;;;;6.82;95.10;99615.00;2210856;81;20988;-64
2021/11/09 02:30:17;;;;;;;24.90;9.98;;;;;;;6.81;95.23;99618.08;2210267;81;21037;-65
2021/11/09 02:33:19;;;;;;;25.90;10.93;;;;;;;6.82;95.25;99627.58;2210298;81;21456;-64
2021/11/09 02:36:21;;;;;;;25.65;10.00;;;;;;;6.81;95.22;99628.94;2210239;81;21143;-64
2021/11/09 02:39:22;;;;;;;23.55;9.75;;;;;;;6.75;95.38;99633.47;2210469;81;21446;-64
2021/11/09 02:42:24;;;;;;;22.60;8.93;;;;;;;6.75;95.41;99629.98;2210491;81;20973;-64
2021/11/09 02:45:27;;;;;;;26.57;10.75;;;;;;;6.74;95.83;99632.22;2210459;81;21578;-64
2021/11/09 02:48:32;;;;;;;25.45;10.13;;;;;;;6.72;95.58;99630.09;2210179;81;21507;-64
2021/11/09 02:54:39;;;;;;;21.93;8.48;;;;;;;6.71;96.05;99641.41;2188581;81;21043;-64
2021/11/09 03:06:53;;;;;;;22.07;8.37;;;;;;;6.68;96.45;99650.21;2210514;81;21060;-64
2021/11/09 03:12:52;;;;;;;22.82;8.78;;;;;;;6.72;96.37;99663.55;2188589;80;21007;-65
2021/11/09 03:15:56;;;;;;;21.68;8.60;;;;;;;6.71;96.26;99666.19;2210275;81;21507;-64
2021/11/09 03:19:07;;;;;;;22.40;8.48;;;;;;;6.74;95.96;99668.72;2188737;81;21539;-65
2021/11/09 03:40:02;;;;;;;22.62;8.10;;;;;;;6.76;96.01;99674.73;2188519;81;21032;-64
2021/11/09 03:46:30;;;;;;;22.82;8.48;;;;;;;6.81;95.93;99689.78;2188634;81;20981;-64
2021/11/09 03:49:31;;;;;;;20.55;7.70;;;;;;;6.81;96.02;99691.52;2188809;81;20989;-64
2021/11/09 03:52:40;;;;;;;19.60;7.80;;;;;;;6.83;95.96;99694.95;2210012;80;21571;-65
2021/11/09 03:58:42;;;;;;;21.87;8.00;;;;;;;6.85;95.93;99709.66;2210632;81;21039;-64
2021/11/09 04:01:59;;;;;;;21.12;7.78;;;;;;;6.85;95.93;99712.27;2188728;81;21012;-64
2021/11/09 04:07:56;;;;;;;22.15;7.78;;;;;;;6.81;95.87;99705.44;2210464;81;20976;-64
2021/11/09 04:14:01;;;;;;;22.65;8.70;;;;;;;6.79;96.09;99712.89;2188346;80;21016;-64
2021/11/09 05:02:48;;;;;;;14.07;4.40;;;;;;;7.27;93.56;99779.61;2188707;81;21479;-64
2021/11/09 05:08:55;;;;;;;16.40;4.70;;;;;;;7.24;93.44;99787.55;2188745;81;20999;-64
2021/11/09 05:11:54;;;;;;;13.08;4.00;;;;;;;7.27;93.68;99787.44;2188450;81;21029;-64
2021/11/09 05:14:56;;;;;;;12.73;3.62;;;;;;;7.32;93.06;99789.89;2216019;80;21578;-64
2021/11/09 05:17:57;;;;;;;15.45;3.80;;;;;;;7.25;92.30;99793.61;2220787;80;21070;-64
2021/11/09 05:21:00;;;;;;;12.95;3.98;;;;;;;7.14;92.32;99798.30;2220780;80;21531;-64
2021/11/09 05:24:01;;;;;;;12.13;3.60;;;;;;;7.05;92.32;99795.53;2220673;80;21028;-64
2021/11/09 05:27:03;;;;;;;14.05;4.20;;;;;;;6.96;92.50;99806.27;2220817;80;21581;-64
2021/11/09 05:30:05;;;;;;;10.60;3.45;;;;;;;6.89;92.60;99815.56;2220452;80;21515;-64
2021/11/09 05:33:07;;;;;;;14.40;4.58;;;;;;;6.84;92.27;99819.20;2221017;80;21023;-64
2021/11/09 05:36:10;;;;;;;12.07;4.00;;;;;;;6.77;92.06;99826.37;2220790;80;21107;-64
2021/11/09 05:39:16;;;;;;;12.35;3.87;;;;;;;6.72;92.41;99829.55;2220545;80;21408;-64
2021/11/09 05:42:15;;;;;;;12.60;3.72;;;;;;;6.79;92.52;99838.06;2190260;80;21040;-64
2021/11/09 05:45:17;;;;;;;13.05;4.40;;;;;;;6.79;92.58;99833.69;2220875;80;21455;-64
2021/11/09 05:48:18;;;;;;;17.40;5.67;;;;;;;6.90;92.52;99845.12;2220800;80;20949;-64
2021/11/09 05:51:20;;;;;;;16.77;4.92;;;;;;;6.90;92.02;99855.09;2220882;80;21484;-64
2021/11/09 05:54:22;;;;;;;13.80;4.35;;;;;;;6.94;92.16;99861.09;2220606;80;21091;-64
2021/11/09 05:57:24;;;;;;;15.05;5.60;;;;;;;7.00;92.44;99867.88;2220458;80;21583;-64
2021/11/09 06:00:25;;;;;;;15.38;4.40;;;;;;;7.02;92.00;99877.34;2220600;80;21075;-65
2021/11/09 06:03:26;;;;;;;12.37;4.20;;;;;;;7.01;91.99;99886.52;2220488;80;21064;-64
2021/11/09 06:06:28;;;;;;;12.90;4.05;;;;;;;6.96;91.83;99900.17;2220896;80;21071;-64
2021/11/09 06:09:29;;;;;;;14.00;4.37;;;;;;;6.94;91.79;99907.58;2220379;80;21119;-65
2021/11/09 06:12:31;;;;;;;14.93;4.77;;;;;;;6.93;91.47;99922.81;2220316;80;21115;-64
2021/11/09 06:15:32;;;;;;;12.65;4.10;;;;;;;6.88;91.36;99926.45;2220396;80;21240;-64
2021/11/09 06:18:34;;;;;;;13.70;4.07;;;;;;;6.81;90.95;99925.78;2221158;80;21540;-64
2021/11/09 06:21:35;;;;;;;14.10;4.62;;;;;;;6.73;90.95;99925.14;2220812;80;21075;-64
2021/11/09 06:24:37;;;;;;;15.55;4.53;;;;;;;6.71;91.04;99929.52;2220766;80;21562;-64
2021/11/09 06:27:38;;;;;;;14.23;3.90;;;;;;;6.73;91.17;99946.00;2220920;80;21051;-64
2021/11/09 06:30:40;;;;;;;13.07;4.10;;;;;;;6.69;89.97;99958.25;2220659;80;21130;-64
2021/11/09 06:33:41;;;;;;;15.00;4.67;;;;;;;6.56;89.81;99967.30;2220871;80;21265;-64
2021/11/09 06:36:43;;;;;;;13.38;4.12;;;;;;;6.41;89.83;99972.48;2220703;80;21066;-65
2021/11/09 06:39:44;;;;;;;16.37;4.50;;;;;;;6.31;90.36;99975.76;2220929;80;21578;-64
2021/11/09 06:42:47;;;;;;;13.45;4.28;;;;;;;6.26;90.29;99991.09;2221050;80;21013;-64
2021/11/09 06:45:48;;;;;;;16.48;5.15;;;;;;;6.21;90.31;99998.57;2221175;80;21052;-64
2021/11/09 06:48:50;;;;;;;14.38;4.70;;;;;;;6.18;90.37;100004.32;2220831;80;20983;-64
2021/11/09 06:51:52;;;;;;;14.28;4.70;;;;;;;6.14;90.57;100017.00;2221052;80;21115;-64
2021/11/09 06:54:53;;;;;;;13.70;3.80;;;;;;;6.15;90.90;100027.39;2220739;80;21038;-64
2021/11/09 06:57:54;;;;;;;16.85;4.35;;;;;;;6.17;90.23;100028.19;2220890;80;21036;-64
2021/11/09 07:00:56;;;;;;;14.70;4.65;;;;;;;6.18;90.50;100032.98;2220726;80;21047;-65
2021/11/09 07:03:57;;;;;;;17.92;4.95;;;;;;;6.27;90.64;100042.33;2221021;80;21606;-64
2021/11/09 07:07:00;;;;;;;15.25;4.97;;;;;;;6.37;90.63;100049.87;2220605;80;21088;-64
2021/11/09 07:10:01;;;;;;;18.32;5.03;;;;;;;6.43;90.51;100054.08;2220929;80;21518;-64
2021/11/09 07:13:03;;;;;;;19.32;6.22;;;;;;;6.43;89.81;100054.08;2220809;80;21055;-64
2021/11/09 07:16:05;;;;;;;17.57;5.90;;;;;;;6.44;89.37;100062.31;2220651;80;21091;-64
2021/11/09 07:19:07;;;;;;;17.23;5.58;;;;;;;6.45;89.33;100066.64;2220571;80;21056;-64
2021/11/09 07:22:09;;;;;;;22.10;6.65;;;;;;;6.42;89.01;100077.11;2220546;80;21040;-64
2021/11/09 07:25:10;;;;;;;24.12;8.85;;;;;;;6.40;88.77;100086.73;2220473;80;21060;-64
2021/11/09 07:28:12;;;;;;;16.90;5.42;;;;;;;6.41;89.45;100090.60;2220654;80;21542;-64
2021/11/09 07:31:16;;;;;;;21.55;7.03;;;;;;;6.49;89.28;100098.23;2220125;80;21515;-64
2021/11/09 07:34:17;;;;;;;18.20;5.80;;;;;;;6.57;88.53;100107.19;2190139;80;21499;-64
2021/11/09 07:37:20;;;;;;;29.90;12.10;;;;;;;6.68;88.01;100108.22;2220758;80;20988;-64
2021/11/09 07:40:23;;;;;;;22.80;8.30;;;;;;;6.70;88.14;100116.41;2220854;80;21039;-64
2021/11/09 07:43:25;;;;;;;21.77;6.25;;;;;;;6.84;88.57;100121.73;2220901;80;21075;-64
2021/11/09 07:46:28;;;;;;;24.85;8.60;;;;;;;7.04;88.27;100123.83;2220897;80;21539;-64
2021/11/09 07:49:30;;;;;;;18.23;5.47;;;;;;;7.08;87.64;100125.05;2220786;80;21052;-64
2021/11/09 07:52:31;;;;;;;18.25;5.37;;;;;;;7.03;86.97;100130.81;2220821;80;21039;-64
2021/11/09 07:55:39;;;;;;;19.48;6.08;;;;;;;6.96;86.32;100134.93;2220596;80;21083;-64
2021/11/09 08:07:52;;;;;;;18.57;5.58;;;;;;;6.84;86.85;100161.73;2190312;80;21027;-64
2021/11/09 08:10:47;;;;;;;17.62;5.33;;;;;;;6.83;86.59;100176.95;2190409;80;21573;-64
2021/11/09 08:13:48;;;;;;;18.42;5.20;;;;;;;6.82;86.56;100181.75;2220713;80;20957;-64
2021/11/09 08:16:50;;;;;;;21.65;6.97;;;;;;;6.70;85.12;100189.88;2210970;80;21060;-64
2021/11/09 08:19:51;;;;;;;21.25;5.95;;;;;;;6.60;85.08;100202.27;2210583;81;21036;-64
2021/11/09 08:22:53;;;;;;;16.77;4.90;;;;;;;6.59;85.92;100204.45;2210399;81;20984;-65
2021/11/09 08:25:54;;;;;;;16.85;4.90;;;;;;;6.80;86.32;100204.88;2210520;81;21079;-65
2021/11/09 08:28:56;;;;;;;16.95;4.83;;;;;;;6.91;86.02;100214.58;2210442;81;20953;-65
2021/11/09 08:31:58;;;;;;;16.00;4.65;;;;;;;6.95;86.31;100221.44;2209909;81;20985;-64
2021/11/09 08:35:00;;;;;;;16.15;5.10;;;;;;;6.99;84.80;100224.85;2210437;80;20989;-64
2021/11/09 08:38:05;;;;;;;18.55;5.65;;;;;;;6.87;84.89;100231.22;2210567;81;21004;-64
2021/11/09 08:41:06;;;;;;;19.57;6.40;;;;;;;6.76;84.78;100237.97;2188859;81;21032;-64
2021/11/09 08:44:10;;;;;;;18.75;5.90;;;;;;;6.70;85.22;100235.52;2210474;80;21036;-64
2021/11/09 08:47:14;;;;;;;20.90;7.12;;;;;;;6.75;85.36;100241.47;2188895;81;21008;-64
2021/11/09 08:50:14;;;;;;;18.37;6.25;;;;;;;6.82;85.16;100250.87;2188683;81;20981;-64
2021/11/09 09:05:29;;;;;;;18.32;5.83;;;;;;;7.00;85.28;100268.31;2188749;81;21020;-64
2021/11/09 09:08:33;;;;;;;15.33;4.40;;;;;;;7.16;85.02;100267.05;2210525;80;21558;-64
2021/11/09 09:11:34;;;;;;;15.30;4.80;;;;;;;7.21;84.14;100273.03;2210348;81;21754;-65
2021/11/09 09:14:36;;;;;;;16.25;4.60;;;;;;;7.22;84.15;100273.88;2211438;80;21135;-65
2021/11/09 09:17:37;;;;;;;11.50;4.00;;;;;;;7.17;83.64;100280.94;2220586;80;21654;-64
2021/11/09 09:20:43;;;;;;;10.70;3.90;;;;;;;6.99;82.80;100289.61;2220706;80;21035;-65
2021/11/09 09:23:48;;;;;;;14.73;4.00;;;;;;;6.89;83.47;100284.20;2190390;80;20945;-65
2021/11/09 09:26:53;;;;;;;10.60;3.67;;;;;;;6.84;84.08;100293.44;2190280;80;21001;-65
2021/11/09 09:57:19;;;;;;;17.17;4.50;;;;;;;7.27;84.01;100328.14;2190146;80;20995;-65
2021/11/09 10:00:20;;;;;;;15.83;4.60;;;;;;;7.27;83.16;100322.45;2220545;80;20972;-64
2021/11/09 10:03:22;;;;;;;15.80;4.58;;;;;;;7.24;82.04;100329.06;2220764;80;21087;-65
2021/11/09 10:06:23;;;;;;;14.33;4.15;;;;;;;7.21;82.44;100336.09;2220614;80;21076;-64
2021/11/09 10:09:25;;;;;;;15.03;4.17;;;;;;;7.25;82.42;100338.58;2220841;80;21048;-65
2021/11/09 10:12:30;;;;;;;13.22;4.03;;;;;;;7.41;81.96;100335.62;2220568;80;21052;-64
2021/11/09 10:15:30;;;;;;;15.70;4.22;;;;;;;7.50;82.76;100344.98;2189922;80;21048;-64
2021/11/09 10:18:33;;;;;;;14.83;4.55;;;;;;;7.59;82.72;100345.63;2220741;80;21024;-65
2021/11/09 10:21:35;;;;;;;17.48;4.40;;;;;;;7.67;81.85;100348.06;2220693;80;21036;-65
2021/11/09 10:24:36;;;;;;;12.23;3.60;;;;;;;7.76;81.88;100358.27;2220761;80;21076;-65
2021/11/09 10:27:37;;;;;;;11.55;3.40;;;;;;;7.77;80.85;100360.00;2220451;80;21576;-64
2021/11/09 10:30:39;;;;;;;10.63;3.37;;;;;;;7.76;80.64;100371.33;2220438;80;21053;-64
2021/11/09 10:33:42;;;;;;;11.77;3.83;;;;;;;7.80;80.64;100370.36;2220321;80;21586;-65
2021/11/09 10:36:45;;;;;;;11.55;3.75;;;;;;;7.89;80.37;100374.50;2220469;80;21711;-64
2021/11/09 10:39:47;;;;;;;14.38;4.28;;;;;;;7.96;79.78;100385.20;2220457;80;21064;-64
2021/11/09 10:42:49;;;;;;;12.58;3.80;;;;;;;7.95;79.33;100379.56;2220329;80;21570;-65
2021/11/09 10:45:51;;;;;;;12.00;3.75;;;;;;;7.98;79.59;100383.86;2220599;80;21068;-65
2021/11/09 10:48:52;;;;;;;12.03;3.90;;;;;;;8.16;79.32;100386.45;2220497;80;21495;-64
2021/11/09 10:51:54;;;;;;;13.95;4.20;;;;;;;8.28;79.42;100389.19;2220725;80;21075;-65
2021/11/09 10:58:15;;;;;;;15.25;4.00;;;;;;;8.36;78.33;100388.97;2190225;80;20992;-65
2021/11/09 11:04:10;;;;;;;13.72;3.40;;;;;;;8.70;78.53;100394.62;2190253;80;20997;-65
2021/11/09 11:07:09;;;;;;;11.88;3.40;;;;;;;8.81;77.62;100388.64;2190289;80;20980;-64
2021/11/09 11:10:10;;;;;;;13.25;3.55;;;;;;;8.80;77.32;100398.23;2220719;80;21726;-65
2021/11/09 11:13:12;;;;;;;11.15;3.60;;;;;;;8.89;77.49;100396.25;2220814;80;21107;-64
2021/11/09 11:16:13;;;;;;;13.90;3.55;;;;;;;9.03;76.78;100398.02;2215623;80;21568;-64
2021/11/09 11:19:15;;;;;;;9.93;3.40;;;;;;;9.00;76.13;100398.95;2210095;81;21085;-65
2021/11/09 11:22:16;;;;;;;11.40;3.58;;;;;;;9.03;75.91;100394.09;2210158;81;21032;-65
2021/11/09 11:25:18;;;;;;;12.30;3.37;;;;;;;9.03;74.96;100399.79;2210563;80;20972;-65
2021/11/09 11:28:19;;;;;;;12.60;3.55;;;;;;;8.87;75.50;100401.53;2210173;81;21032;-64
2021/11/09 11:31:21;;;;;;;9.95;3.40;;;;;;;8.87;75.49;100400.69;2210091;81;21071;-65
2021/11/09 11:34:22;;;;;;;14.47;3.77;;;;;;;8.95;75.41;100409.16;2210417;80;21019;-64
2021/11/09 11:37:24;;;;;;;13.25;3.62;;;;;;;8.91;75.52;100411.48;2209819;81;21611;-65
2021/11/09 11:40:25;;;;;;;19.05;4.30;;;;;;;8.84;76.34;100416.02;2210401;80;21037;-65
2021/11/09 11:43:26;;;;;;;13.83;4.15;;;;;;;8.84;75.35;100418.17;2210175;81;21514;-65
2021/11/09 11:46:28;;;;;;;14.55;4.00;;;;;;;8.70;75.49;100418.17;2210260;81;21020;-64
2021/11/09 11:49:29;;;;;;;14.47;4.25;;;;;;;8.48;75.16;100427.91;2210139;81;21076;-65
2021/11/09 11:52:31;;;;;;;15.05;4.00;;;;;;;8.29;75.64;100426.20;2210310;81;20973;-65
2021/11/09 11:55:32;;;;;;;16.00;4.50;;;;;;;8.02;74.54;100427.31;2210407;80;21024;-64
2021/11/09 11:58:34;;;;;;;14.47;3.98;;;;;;;7.80;74.78;100433.05;2210447;80;21056;-64
2021/11/09 12:01:36;;;;;;;13.83;3.90;;;;;;;7.60;75.31;100429.61;2210220;81;21063;-64
2021/11/09 12:04:38;;;;;;;13.43;3.33;;;;;;;7.75;76.63;100428.38;2210227;80;21080;-64
2021/11/09 12:07:39;;;;;;;12.47;3.62;;;;;;;7.90;75.56;100425.86;2210121;81;21012;-65
2021/11/09 12:10:40;;;;;;;9.08;2.92;;;;;;;8.03;75.95;100422.50;2210069;81;21574;-64
2021/11/09 12:13:42;;;;;;;10.43;3.00;;;;;;;8.16;74.00;100421.74;2210362;81;21067;-65
2021/11/09 12:16:45;;;;;;;9.28;3.05;;;;;;;8.05;74.48;100420.69;2215319;80;21606;-64
2021/11/09 12:19:47;;;;;;;11.18;3.50;;;;;;;7.91;74.72;100417.10;2220385;80;21052;-66
2021/11/09 12:22:49;;;;;;;12.23;3.40;;;;;;;7.85;75.23;100421.19;2220880;80;21032;-67
2021/11/09 12:25:52;;;;;;;9.15;3.27;;;;;;;8.02;75.72;100423.39;2220701;80;21614;-65
2021/11/09 12:28:53;;;;;;;;;;;;;;;8.27;75.80;100421.45;2223269;80;21052;-64
2021/11/09 12:31:55;;;;;;;13.43;3.70;;;;;;;8.45;75.84;100421.00;2220614;80;20092;-65
2021/11/09 12:35:01;;;;;;;15.18;4.28;;;;;;;8.82;75.36;100420.42;2220348;80;21522;-65
2021/11/09 12:41:03;;;;;;;15.50;4.60;;;;;;;8.82;74.62;100423.91;2190312;80;20981;-64
2021/11/09 12:44:07;;;;;;;13.60;3.80;;;;;;;8.77;74.26;100416.63;2220856;80;21043;-65
2021/11/09 12:47:09;;;;;;;11.48;3.60;;;;;;;8.74;74.46;100414.57;2220583;80;21035;-65
2021/11/09 12:50:10;;;;;;;10.50;3.03;;;;;;;8.73;74.40;100415.46;2220963;80;20996;-65
2021/11/09 12:53:11;;;;;;;12.47;3.80;;;;;;;8.60;73.49;100418.41;2220503;80;21059;-65
2021/11/09 12:56:13;;;;;;;12.65;3.40;;;;;;;8.51;74.55;100431.75;2221101;80;21017;-65
2021/11/09 12:59:19;;;;;;;11.65;3.40;;;;;;;8.45;74.08;100430.15;2220762;80;21115;-65
2021/11/09 13:02:26;;;;;;;11.93;3.42;;;;;;;8.33;74.30;100427.38;2190421;80;21020;-65
2021/11/09 13:05:27;;;;;;;12.60;3.55;;;;;;;8.28;73.92;100431.02;2190326;80;21502;-64
2021/11/09 13:08:37;;;;;;;12.03;3.70;;;;;;;8.10;73.83;100433.64;2190182;80;21562;-64
2021/11/09 13:11:28;;;;;;;11.15;3.55;;;;;;;7.98;73.35;100434.34;2190105;80;20941;-65
2021/11/09 13:14:30;;;;;;;11.08;3.42;;;;;;;7.90;73.80;100436.31;2220786;80;21056;-65
2021/11/09 13:17:34;;;;;;;12.55;3.90;;;;;;;7.73;73.04;100438.02;2220610;80;21079;-65
2021/11/09 13:20:36;;;;;;;14.85;4.08;;;;;;;7.55;74.03;100427.99;2190323;80;20977;-65
2021/11/09 13:23:38;;;;;;;9.05;3.47;;;;;;;7.45;73.81;100432.10;2220522;80;21061;-65
2021/11/09 13:26:39;;;;;;;11.50;3.67;;;;;;;7.34;75.09;100431.94;2220422;80;21108;-65
2021/11/09 13:29:40;;;;;;;12.40;3.85;;;;;;;7.28;75.54;100435.54;2220518;80;21607;-65
2021/11/09 13:32:42;;;;;;;14.40;3.90;;;;;;;7.33;75.56;100435.46;2220447;80;21049;-65
2021/11/09 13:35:44;;;;;;;10.70;3.37;;;;;;;7.33;75.93;100438.07;2220796;80;21036;-64
2021/11/09 13:38:45;;;;;;;12.95;4.15;;;;;;;7.38;76.34;100444.03;2220909;80;21014;-65
2021/11/09 13:41:47;;;;;;;13.55;3.77;;;;;;;7.39;75.83;100451.83;2220738;80;21092;-65
2021/11/09 13:44:48;;;;;;;13.83;4.25;;;;;;;7.38;76.26;100446.64;2220673;80;21056;-64
2021/11/09 13:47:50;;;;;;;14.70;4.22;;;;;;;7.32;76.02;100448.09;2220571;80;21012;-65
2021/11/09 13:50:51;;;;;;;15.85;4.10;;;;;;;7.33;76.12;100447.20;2220477;80;21546;-65
2021/11/09 13:53:53;;;;;;;17.17;4.62;;;;;;;7.32;76.10;100443.72;2220717;80;21060;-65
2021/11/09 13:56:54;;;;;;;14.33;3.90;;;;;;;7.48;76.74;100447.30;2220509;80;21531;-65
2021/11/09 13:59:55;;;;;;;15.38;4.00;;;;;;;7.36;73.97;100445.83;2220724;80;21043;-65
2021/11/09 14:03:03;;;;;;;12.53;3.75;;;;;;;7.13;74.93;100451.09;2220478;80;21045;-65
2021/11/09 14:15:16;;;;;;;11.18;3.62;;;;;;;6.95;75.95;100457.53;2190297;80;21000;-64
2021/11/09 14:18:12;;;;;;;11.08;3.65;;;;;;;6.83;75.18;100463.85;2192614;80;21020;-65
2021/11/09 14:21:14;;;;;;;13.00;4.03;;;;;;;6.75;75.97;100456.61;2223096;80;21036;-65
2021/11/09 14:24:16;;;;;;;23.40;7.15;;;;;;;6.80;76.81;100453.94;2223476;80;21031;-65
2021/11/09 14:27:18;;;;;;;17.07;5.08;;;;;;;6.88;76.71;100455.93;2223387;80;20956;-65
2021/11/09 14:30:19;;;;;;;16.80;4.97;;;;;;;6.81;77.16;100449.12;2223294;80;20949;-65
2021/11/09 14:33:21;;;;;;;18.07;5.42;;;;;;;6.82;77.41;100453.45;2223224;80;21027;-65
2021/11/09 14:36:23;;;;;;;17.73;5.53;;;;;;;6.79;77.97;100459.58;2223495;80;20984;-64
2021/11/09 14:39:26;;;;;;;17.10;4.78;;;;;;;6.81;78.03;100460.85;2223360;80;21027;-65
2021/11/09 14:42:36;;;;;;;17.20;5.22;;;;;;;6.83;78.16;100462.55;2223165;80;21040;-64
2021/11/09 14:48:49;;;;;;;18.10;5.25;;;;;;;6.82;78.07;100459.97;2193087;80;21531;-65
2021/11/09 14:51:38;;;;;;;17.73;4.97;;;;;;;6.81;78.06;100461.73;2193091;80;21588;-65
2021/11/09 14:54:46;;;;;;;17.12;5.00;;;;;;;6.91;78.31;100455.44;2223596;80;21008;-65
2021/11/09 14:57:43;;;;;;;16.77;5.47;;;;;;;7.11;77.93;100454.16;2193073;80;21063;-65
2021/11/09 15:00:44;;;;;;;33.98;12.18;;;;;;;7.25;77.89;100459.09;2223670;80;21452;-65
2021/11/09 15:03:46;;;;;;;18.57;4.77;;;;;;;7.41;77.41;100451.37;2223491;80;20948;-65
2021/11/09 15:34:27;;;;;;;20.85;6.80;;;;;;;7.20;75.25;100461.81;2190224;80;21031;-65
2021/11/09 15:40:22;;;;;;;20.43;6.92;;;;;;;6.87;75.64;100458.15;2190260;80;21012;-65
2021/11/09 15:43:23;;;;;;;;;;;;;;;6.71;75.83;100473.20;2223353;80;21032;-65
2021/11/09 15:46:25;;;;;;;27.45;8.45;;;;;;;6.57;75.84;100478.23;2220486;80;20420;-65
2021/11/09 15:49:26;;;;;;;26.15;9.50;;;;;;;6.39;75.99;100476.84;2220651;80;21028;-65
2021/11/09 15:52:29;;;;;;;27.87;11.03;;;;;;;6.18;76.25;100478.51;2220530;80;21067;-65
2021/11/09 15:55:30;;;;;;;;;;;;;;;6.02;76.07;100485.68;2223192;80;21115;-65
2021/11/09 15:58:32;;;;;;;27.42;8.78;;;;;;;5.86;76.29;100494.14;2220744;80;20092;-65
2021/11/09 16:01:34;;;;;;;24.63;7.80;;;;;;;5.72;76.60;100495.67;2221000;80;20949;-65
2021/11/09 16:04:40;;;;;;;41.83;13.18;;;;;;;5.58;76.68;100495.85;2220761;80;20991;-65
2021/11/09 16:07:40;;;;;;;62.73;26.77;;;;;;;5.68;77.22;100496.59;2190497;80;21004;-65
2021/11/09 16:10:42;;;;;;;;;;;;;;;5.68;76.89;100499.19;2223385;80;21594;-65
2021/11/09 16:13:44;;;;;;;39.23;12.35;;;;;;;5.42;76.72;100503.01;2220644;80;20135;-66
2021/11/09 16:16:45;;;;;;;31.93;10.88;;;;;;;5.22;77.06;100506.31;2220704;80;21111;-66
2021/11/09 16:19:47;;;;;;;32.90;10.20;;;;;;;5.11;77.34;100512.92;2220769;80;21007;-65
2021/11/09 16:22:49;;;;;;;31.40;10.82;;;;;;;5.05;77.46;100519.05;2220886;80;21027;-65
2021/11/09 16:25:50;;;;;;;32.43;12.47;;;;;;;5.09;77.29;100518.60;2221008;80;20999;-66
2021/11/09 16:28:54;;;;;;;26.40;8.65;;;;;;;4.92;77.42;100517.03;2189125;80;21079;-65
2021/11/09 16:31:55;;;;;;;25.60;8.20;;;;;;;4.76;77.34;100520.68;2220762;80;21056;-66
2021/11/09 16:35:01;;;;;;;39.92;18.02;;;;;;;4.62;77.70;100520.36;2220694;80;21007;-66
2021/11/09 16:38:01;;;;;;;61.85;27.35;;;;;;;4.46;77.79;100522.69;2190269;80;21013;-65
2021/11/09 16:41:04;;;;;;;52.62;25.05;;;;;;;4.32;78.03;100524.09;2220471;80;21084;-65
2021/11/09 16:44:08;;;;;;;38.60;17.12;;;;;;;4.27;78.31;100525.88;2220586;80;21041;-65
2021/11/09 16:47:10;;;;;;;52.62;19.00;;;;;;;4.22;78.46;100523.75;2190405;80;20977;-65
2021/11/09 16:53:16;;;;;;;23.45;9.20;;;;;;;4.18;78.29;100524.64;2190365;80;20993;-65
2021/11/09 16:56:33;;;;;;;23.00;9.50;;;;;;;4.12;78.20;100529.44;2220733;80;21019;-65
2021/11/09 17:09:03;;;;;;;20.70;6.70;;;;;;;3.73;78.20;100545.70;2190440;80;21036;-65
2021/11/09 18:13:24;;;;;;;93.25;39.88;;;;;;;4.48;79.74;100566.39;2163145;82;21019;-65
2021/11/09 18:15:56;;;;;;;90.50;39.75;;;;;;;4.57;79.96;100570.23;2163237;82;21039;-65
2021/11/09 18:21:49;;;;;;;58.30;26.40;;;;;;;4.61;79.44;100577.14;2173992;81;21099;-64
2021/11/09 18:24:50;;;;;;;37.60;16.75;;;;;;;4.62;79.66;100577.54;2201631;81;21527;-65
2021/11/09 18:27:52;;;;;;;27.25;12.13;;;;;;;4.66;79.80;100577.09;2201610;81;20993;-65
2021/11/09 18:30:54;;;;;;;48.35;20.82;;;;;;;4.74;80.04;100577.02;2201647;81;20997;-64
2021/11/09 18:33:55;;;;;;;37.60;13.93;;;;;;;4.85;80.04;100581.67;2201633;81;20965;-65
2021/11/09 18:36:56;;;;;;;39.80;16.57;;;;;;;4.76;78.91;100588.27;2201615;81;21480;-65
2021/11/09 18:39:58;;;;;;;54.58;23.27;;;;;;;4.46;78.96;100587.20;2201382;81;20993;-65
2021/11/09 18:43:00;;;;;;;45.55;18.95;;;;;;;4.38;79.62;100582.94;2201517;81;21043;-65